This is the latest recevied weather packets stored in our database for station/object KY4LEX. If no packets are shown the sender has not sent any weather packets the latest 10 day(s).
| Time | Temp. | Humidity | Pressure | Rain* | Wind** | Luminosity | Snow |
|---|---|---|---|---|---|---|---|
| 1777404598 | 23.89° C | 66% | 1020.9 hPa | 0 mm | - | 665 W/m² | - |
| 1777404295 | 24.44° C | 64% | 1020.7 hPa | 0 mm | - | 144 W/m² | - |
| 1777403991 | 25° C | 67% | 1020.5 hPa | 0 mm | - | 180 W/m² | - |
| 1777403686 | 24.44° C | 67% | 1020.5 hPa | 0 mm | - | 664 W/m² | - |
| 1777403384 | 23.89° C | 68% | 1020.4 hPa | 0 mm | - | 323 W/m² | - |
| 1777403079 | 23.89° C | 68% | 1020.3 hPa | 0 mm | - | 720 W/m² | - |
| 1777402776 | 23.89° C | 67% | 1020.1 hPa | 0 mm | - | 667 W/m² | - |
| 1777402472 | 23.89° C | 69% | 1020.3 hPa | 0 mm | - | 712 W/m² | - |
| 1777402170 | 23.89° C | 69% | 1020.5 hPa | 0 mm | - | 261 W/m² | - |
| 1777401870 | 22.78° C | 73% | 1020.6 hPa | 0 mm | - | 707 W/m² | - |
| 1777401570 | 22.22° C | 76% | 1020.7 hPa | 0 mm | - | 384 W/m² | - |
| 1777401266 | 22.78° C | 76% | 1020.7 hPa | 0 mm | - | 136 W/m² | - |
| 1777400962 | 22.22° C | 76% | 1020.9 hPa | 0 mm | - | 300 W/m² | - |
| 1777400658 | 21.67° C | 78% | 1020.7 hPa | 0 mm | - | 152 W/m² | - |
| 1777400356 | 22.22° C | 77% | 1021.1 hPa | 0 mm | - | 436 W/m² | - |
| 1777400051 | 21.67° C | 79% | 1020.9 hPa | 0 mm | - | 265 W/m² | - |
| 1777399749 | 21.67° C | 79% | 1020.9 hPa | 0 mm | - | 508 W/m² | - |
| 1777399445 | 21.11° C | 81% | 1021.3 hPa | 0 mm | - | 134 W/m² | - |
| 1777399143 | 21.67° C | 80% | 1021.1 hPa | 0 mm | - | 244 W/m² | - |
| 1777398839 | 21.67° C | 78% | 1021.1 hPa | 0 mm | - | 326 W/m² | - |
| 1777398536 | 21.67° C | 81% | 1021.2 hPa | 0 mm | - | 1012 W/m² | - |
| 1777398233 | 21.67° C | 81% | 1021.3 hPa | 0 mm | - | 249 W/m² | - |
| 1777397930 | 21.11° C | 82% | 1021.2 hPa | 0 mm | - | 260 W/m² | - |
| 1777397625 | 21.67° C | 81% | 1021.1 hPa | 0 mm | - | 400 W/m² | - |
| 1777397322 | 21.67° C | 81% | 1021 hPa | 0 mm | - | 323 W/m² | - |
* Rain latest hour (hover to see other rain measurements)
** Current wind speed in m/s (hover to see current wind gust speed)